sensor_id;sensor_type;location;lat;lon;timestamp;pressure;altitude;pressure_sealevel;temperature;humidity
36726;BME280;44936;52.086;5.150;2023-02-23T00:00:29;101765.56;;;8.48;100.00
36726;BME280;44936;52.086;5.150;2023-02-23T00:03:00;101748.84;;;8.41;100.00
36726;BME280;44936;52.086;5.150;2023-02-23T00:05:27;101764.78;;;8.50;100.00
36726;BME280;44936;52.086;5.150;2023-02-23T00:07:53;101772.41;;;8.43;100.00
36726;BME280;44936;52.086;5.150;2023-02-23T00:10:20;101782.88;;;8.43;100.00
36726;BME280;44936;52.086;5.150;2023-02-23T00:12:46;101783.06;;;8.50;100.00
36726;BME280;44936;52.086;5.150;2023-02-23T00:15:14;101756.69;;;8.41;100.00
36726;BME280;44936;52.086;5.150;2023-02-23T00:17:40;101746.59;;;8.57;100.00
36726;BME280;44936;52.086;5.150;2023-02-23T00:20:07;101757.00;;;8.54;100.00
36726;BME280;44936;52.086;5.150;2023-02-23T00:22:40;101753.84;;;8.34;100.00
36726;BME280;44936;52.086;5.150;2023-02-23T00:25:07;101780.25;;;8.43;100.00
36726;BME280;44936;52.086;5.150;2023-02-23T00:27:37;101787.03;;;8.36;100.00
36726;BME280;44936;52.086;5.150;2023-02-23T00:30:12;101795.75;;;8.37;100.00
36726;BME280;44936;52.086;5.150;2023-02-23T00:32:37;101786.41;;;8.45;100.00
36726;BME280;44936;52.086;5.150;2023-02-23T00:35:03;101750.25;;;8.30;100.00
36726;BME280;44936;52.086;5.150;2023-02-23T00:37:32;101768.94;;;8.44;100.00
36726;BME280;44936;52.086;5.150;2023-02-23T00:39:57;101734.63;;;8.32;100.00
36726;BME280;44936;52.086;5.150;2023-02-23T00:42:23;101717.91;;;8.27;100.00
36726;BME280;44936;52.086;5.150;2023-02-23T00:44:49;101753.41;;;8.48;100.00
36726;BME280;44936;52.086;5.150;2023-02-23T00:47:14;101717.25;;;8.34;100.00
36726;BME280;44936;52.086;5.150;2023-02-23T00:49:40;101719.97;;;8.37;100.00
36726;BME280;44936;52.086;5.150;2023-02-23T00:52:09;101742.59;;;8.36;100.00
36726;BME280;44936;52.086;5.150;2023-02-23T00:54:34;101762.69;;;8.39;100.00
36726;BME280;44936;52.086;5.150;2023-02-23T00:56:59;101737.06;;;8.26;100.00
36726;BME280;44936;52.086;5.150;2023-02-23T00:59:25;101752.91;;;8.32;100.00
36726;BME280;44936;52.086;5.150;2023-02-23T01:01:51;101743.47;;;8.37;100.00
36726;BME280;44936;52.086;5.150;2023-02-23T01:04:16;101732.28;;;8.41;100.00
36726;BME280;44936;52.086;5.150;2023-02-23T01:06:42;101710.41;;;8.39;100.00
36726;BME280;44936;52.086;5.150;2023-02-23T01:09:10;101701.44;;;8.29;100.00
36726;BME280;44936;52.086;5.150;2023-02-23T01:11:37;101731.50;;;8.45;100.00
36726;BME280;44936;52.086;5.150;2023-02-23T01:14:04;101738.59;;;8.49;100.00
36726;BME280;44936;52.086;5.150;2023-02-23T01:16:31;101735.03;;;8.47;100.00
36726;BME280;44936;52.086;5.150;2023-02-23T01:18:59;101708.50;;;8.32;100.00
36726;BME280;44936;52.086;5.150;2023-02-23T01:21:28;101735.03;;;8.47;100.00
36726;BME280;44936;52.086;5.150;2023-02-23T01:23:54;101737.78;;;8.51;100.00
36726;BME280;44936;52.086;5.150;2023-02-23T01:26:22;101736.88;;;8.49;100.00
36726;BME280;44936;52.086;5.150;2023-02-23T01:28:52;101738.66;;;8.52;100.00
36726;BME280;44936;52.086;5.150;2023-02-23T01:31:18;101706.78;;;8.34;100.00
36726;BME280;44936;52.086;5.150;2023-02-23T01:33:44;101714.22;;;8.50;100.00
36726;BME280;44936;52.086;5.150;2023-02-23T01:36:11;101718.56;;;8.49;100.00
36726;BME280;44936;52.086;5.150;2023-02-23T01:38:37;101731.78;;;8.56;100.00
36726;BME280;44936;52.086;5.150;2023-02-23T01:41:03;101746.53;;;8.54;100.00
36726;BME280;44936;52.086;5.150;2023-02-23T01:43:28;101718.38;;;8.42;100.00
36726;BME280;44936;52.086;5.150;2023-02-23T01:45:56;101752.81;;;8.60;100.00
36726;BME280;44936;52.086;5.150;2023-02-23T01:48:28;101729.97;;;8.53;100.00
36726;BME280;44936;52.086;5.150;2023-02-23T01:51:06;101718.63;;;8.52;100.00
36726;BME280;44936;52.086;5.150;2023-02-23T01:53:36;101740.72;;;8.65;100.00
36726;BME280;44936;52.086;5.150;2023-02-23T01:56:16;101731.97;;;8.63;100.00
36726;BME280;44936;52.086;5.150;2023-02-23T01:58:45;101735.47;;;8.64;100.00
36726;BME280;44936;52.086;5.150;2023-02-23T02:01:12;101739.81;;;8.63;100.00
36726;BME280;44936;52.086;5.150;2023-02-23T02:03:45;101755.44;;;8.60;100.00
36726;BME280;44936;52.086;5.150;2023-02-23T02:06:14;101773.75;;;8.60;100.00
36726;BME280;44936;52.086;5.150;2023-02-23T02:08:45;101781.59;;;8.60;100.00
36726;BME280;44936;52.086;5.150;2023-02-23T02:11:14;101785.97;;;8.61;100.00
36726;BME280;44936;52.086;5.150;2023-02-23T02:14:03;101788.56;;;8.60;100.00
36726;BME280;44936;52.086;5.150;2023-02-23T02:41:56;101770.31;;;8.63;100.00
36726;BME280;44936;52.086;5.150;2023-02-23T02:44:33;101766.75;;;8.59;100.00
36726;BME280;44936;52.086;5.150;2023-02-23T02:47:10;101765.72;;;8.54;100.00
36726;BME280;44936;52.086;5.150;2023-02-23T02:49:45;101782.09;;;8.47;100.00
36726;BME280;44936;52.086;5.150;2023-02-23T02:52:24;101790.06;;;8.51;100.00
36726;BME280;44936;52.086;5.150;2023-02-23T02:54:56;101796.22;;;8.54;100.00
36726;BME280;44936;52.086;5.150;2023-02-23T02:57:26;101798.84;;;8.54;100.00
36726;BME280;44936;52.086;5.150;2023-02-23T02:59:52;101761.88;;;8.40;100.00
36726;BME280;44936;52.086;5.150;2023-02-23T03:02:38;101774.25;;;8.47;100.00
36726;BME280;44936;52.086;5.150;2023-02-23T03:05:26;101787.56;;;8.56;100.00
36726;BME280;44936;52.086;5.150;2023-02-23T03:08:21;101784.94;;;8.56;100.00
36726;BME280;44936;52.086;5.150;2023-02-23T03:11:14;101796.81;;;8.43;100.00
36726;BME280;44936;52.086;5.150;2023-02-23T03:14:16;101805.53;;;8.42;100.00
36726;BME280;44936;52.086;5.150;2023-02-23T03:17:08;101787.06;;;8.38;100.00
36726;BME280;44936;52.086;5.150;2023-02-23T03:20:16;101771.84;;;8.23;100.00
36726;BME280;44936;52.086;5.150;2023-02-23T03:26:01;101734.28;;;8.19;100.00
36726;BME280;44936;52.086;5.150;2023-02-23T03:29:01;101757.31;;;8.33;100.00
36726;BME280;44936;52.086;5.150;2023-02-23T03:32:06;101770.63;;;8.40;100.00
36726;BME280;44936;52.086;5.150;2023-02-23T03:37:48;101748.38;;;8.24;100.00
36726;BME280;44936;52.086;5.150;2023-02-23T03:40:38;101774.72;;;8.32;100.00
36726;BME280;44936;52.086;5.150;2023-02-23T03:43:28;101775.00;;;8.41;100.00
36726;BME280;44936;52.086;5.150;2023-02-23T03:46:16;101756.31;;;8.29;100.00
36726;BME280;44936;52.086;5.150;2023-02-23T03:49:03;101755.69;;;8.06;100.00
36726;BME280;44936;52.086;5.150;2023-02-23T03:51:54;101754.84;;;8.07;100.00
36726;BME280;44936;52.086;5.150;2023-02-23T03:54:48;101774.41;;;8.21;100.00
36726;BME280;44936;52.086;5.150;2023-02-23T03:57:37;101783.09;;;8.20;100.00
36726;BME280;44936;52.086;5.150;2023-02-23T04:00:28;101794.78;;;8.33;100.00
36726;BME280;44936;52.086;5.150;2023-02-23T04:03:15;101756.06;;;8.20;100.00
36726;BME280;44936;52.086;5.150;2023-02-23T04:06:02;101739.09;;;8.04;100.00
36726;BME280;44936;52.086;5.150;2023-02-23T04:08:49;101734.03;;;8.10;100.00
36726;BME280;44936;52.086;5.150;2023-02-23T04:11:48;101778.38;;;8.39;100.00
36726;BME280;44936;52.086;5.150;2023-02-23T04:14:42;101773.25;;;8.42;100.00
36726;BME280;44936;52.086;5.150;2023-02-23T04:17:11;101759.06;;;8.34;100.00
36726;BME280;44936;52.086;5.150;2023-02-23T04:19:48;101746.66;;;8.27;100.00
36726;BME280;44936;52.086;5.150;2023-02-23T04:22:13;101771.50;;;8.41;100.00
36726;BME280;44936;52.086;5.150;2023-02-23T04:24:39;101730.75;;;8.17;100.00
36726;BME280;44936;52.086;5.150;2023-02-23T04:27:04;101780.31;;;8.46;100.00
36726;BME280;44936;52.086;5.150;2023-02-23T04:29:30;101787.31;;;8.47;100.00
36726;BME280;44936;52.086;5.150;2023-02-23T04:31:55;101757.16;;;8.28;100.00
36726;BME280;44936;52.086;5.150;2023-02-23T04:34:21;101747.38;;;8.21;100.00
36726;BME280;44936;52.086;5.150;2023-02-23T04:36:46;101771.34;;;8.36;100.00
36726;BME280;44936;52.086;5.150;2023-02-23T04:39:12;101783.63;;;8.39;100.00
36726;BME280;44936;52.086;5.150;2023-02-23T04:41:37;101802.16;;;8.48;100.00
36726;BME280;44936;52.086;5.150;2023-02-23T04:44:02;101785.31;;;8.37;100.00
36726;BME280;44936;52.086;5.150;2023-02-23T04:46:29;101798.25;;;8.32;100.00
36726;BME280;44936;52.086;5.150;2023-02-23T04:48:54;101826.16;;;8.33;100.00
36726;BME280;44936;52.086;5.150;2023-02-23T04:51:19;101836.50;;;8.30;100.00
36726;BME280;44936;52.086;5.150;2023-02-23T04:53:45;101840.16;;;8.35;100.00
36726;BME280;44936;52.086;5.150;2023-02-23T04:56:10;101822.59;;;8.31;100.00
36726;BME280;44936;52.086;5.150;2023-02-23T04:58:36;101817.03;;;8.19;100.00
36726;BME280;44936;52.086;5.150;2023-02-23T05:01:07;101806.59;;;8.20;100.00
36726;BME280;44936;52.086;5.150;2023-02-23T05:03:34;101793.44;;;8.16;100.00
36726;BME280;44936;52.086;5.150;2023-02-23T05:06:00;101789.13;;;8.18;100.00
36726;BME280;44936;52.086;5.150;2023-02-23T05:08:25;101802.44;;;8.27;100.00
36726;BME280;44936;52.086;5.150;2023-02-23T05:10:51;101824.66;;;8.41;100.00
36726;BME280;44936;52.086;5.150;2023-02-23T05:13:16;101816.69;;;8.37;100.00
36726;BME280;44936;52.086;5.150;2023-02-23T05:15:41;101822.00;;;8.40;100.00
36726;BME280;44936;52.086;5.150;2023-02-23T05:18:08;101805.88;;;8.24;100.00
36726;BME280;44936;52.086;5.150;2023-02-23T05:20:34;101821.91;;;8.37;100.00
36726;BME280;44936;52.086;5.150;2023-02-23T05:23:00;101828.91;;;8.38;100.00
36726;BME280;44936;52.086;5.150;2023-02-23T05:25:25;101810.06;;;8.19;100.00
36726;BME280;44936;52.086;5.150;2023-02-23T05:27:50;101830.31;;;8.27;100.00
36726;BME280;44936;52.086;5.150;2023-02-23T05:30:16;101825.78;;;8.21;100.00
36726;BME280;44936;52.086;5.150;2023-02-23T05:32:41;101798.63;;;8.14;100.00
36726;BME280;44936;52.086;5.150;2023-02-23T05:35:07;101835.91;;;8.39;100.00
36726;BME280;44936;52.086;5.150;2023-02-23T05:37:33;101784.69;;;8.15;100.00
36726;BME280;44936;52.086;5.150;2023-02-23T05:39:59;101803.34;;;8.29;100.00
36726;BME280;44936;52.086;5.150;2023-02-23T05:42:24;101822.81;;;8.39;100.00
36726;BME280;44936;52.086;5.150;2023-02-23T05:44:50;101811.34;;;8.34;100.00
36726;BME280;44936;52.086;5.150;2023-02-23T05:47:15;101824.56;;;8.38;100.00
36726;BME280;44936;52.086;5.150;2023-02-23T05:49:40;101775.94;;;8.13;100.00
36726;BME280;44936;52.086;5.150;2023-02-23T05:52:06;101809.56;;;8.33;100.00
36726;BME280;44936;52.086;5.150;2023-02-23T05:54:31;101776.81;;;8.14;100.00
36726;BME280;44936;52.086;5.150;2023-02-23T05:56:56;101835.59;;;8.30;100.00
36726;BME280;44936;52.086;5.150;2023-02-23T05:59:22;101821.53;;;8.24;100.00
36726;BME280;44936;52.086;5.150;2023-02-23T06:01:47;101834.56;;;8.23;100.00
36726;BME280;44936;52.086;5.150;2023-02-23T06:04:12;101835.59;;;8.30;100.00
36726;BME280;44936;52.086;5.150;2023-02-23T06:06:38;101830.31;;;8.27;100.00
36726;BME280;44936;52.086;5.150;2023-02-23T06:09:04;101844.41;;;8.32;100.00
36726;BME280;44936;52.086;5.150;2023-02-23T06:11:29;101853.88;;;8.28;100.00
36726;BME280;44936;52.086;5.150;2023-02-23T06:13:57;101860.88;;;8.29;100.00
36726;BME280;44936;52.086;5.150;2023-02-23T06:16:24;101823.78;;;8.12;100.00
36726;BME280;44936;52.086;5.150;2023-02-23T06:18:49;101841.66;;;8.27;100.00
36726;BME280;44936;52.086;5.150;2023-02-23T06:21:14;101840.84;;;8.30;100.00
36726;BME280;44936;52.086;5.150;2023-02-23T06:23:40;101808.97;;;8.11;100.00
36726;BME280;44936;52.086;5.150;2023-02-23T06:26:07;101833.47;;;8.15;100.00
36726;BME280;44936;52.086;5.150;2023-02-23T06:28:33;101859.09;;;8.28;100.00
36726;BME280;44936;52.086;5.150;2023-02-23T06:30:58;101841.53;;;8.22;100.00
36726;BME280;44936;52.086;5.150;2023-02-23T06:33:24;101846.28;;;8.36;100.00
36726;BME280;44936;52.086;5.150;2023-02-23T06:35:50;101824.81;;;8.17;100.00
36726;BME280;44936;52.086;5.150;2023-02-23T06:38:15;101851.44;;;8.34;100.00
36726;BME280;44936;52.086;5.150;2023-02-23T06:40:41;101826.66;;;8.21;100.00
36726;BME280;44936;52.086;5.150;2023-02-23T06:43:07;101836.56;;;8.32;100.00
36726;BME280;44936;52.086;5.150;2023-02-23T06:45:32;101860.94;;;8.31;100.00
36726;BME280;44936;52.086;5.150;2023-02-23T06:47:58;101837.78;;;8.13;100.00
36726;BME280;44936;52.086;5.150;2023-02-23T06:50:25;101890.03;;;8.41;100.00
36726;BME280;44936;52.086;5.150;2023-02-23T06:52:50;101874.00;;;8.31;100.00
36726;BME280;44936;52.086;5.150;2023-02-23T06:55:16;101885.53;;;8.37;100.00
36726;BME280;44936;52.086;5.150;2023-02-23T06:57:41;101886.34;;;8.35;100.00
36726;BME280;44936;52.086;5.150;2023-02-23T07:00:09;101896.88;;;8.38;100.00
36726;BME280;44936;52.086;5.150;2023-02-23T07:02:35;101910.97;;;8.43;100.00
36726;BME280;44936;52.086;5.150;2023-02-23T07:05:02;101882.66;;;8.30;100.00
36726;BME280;44936;52.086;5.150;2023-02-23T07:07:27;101897.56;;;8.32;100.00
36726;BME280;44936;52.086;5.150;2023-02-23T07:09:53;101905.03;;;8.20;100.00
36726;BME280;44936;52.086;5.150;2023-02-23T07:12:18;101911.03;;;8.16;100.00
36726;BME280;44936;52.086;5.150;2023-02-23T07:14:45;101924.31;;;8.23;100.00
36726;BME280;44936;52.086;5.150;2023-02-23T07:17:11;101929.84;;;8.34;100.00
36726;BME280;44936;52.086;5.150;2023-02-23T07:19:36;101898.84;;;8.16;100.00
36726;BME280;44936;52.086;5.150;2023-02-23T07:22:01;101931.41;;;8.28;100.00
36726;BME280;44936;52.086;5.150;2023-02-23T07:24:27;101936.34;;;8.18;100.00
36726;BME280;44936;52.086;5.150;2023-02-23T07:26:53;101933.47;;;8.09;100.00
36726;BME280;44936;52.086;5.150;2023-02-23T07:29:18;101984.91;;;8.39;100.00
36726;BME280;44936;52.086;5.150;2023-02-23T07:31:44;101988.59;;;8.45;100.00
36726;BME280;44936;52.086;5.150;2023-02-23T07:34:10;101955.75;;;8.27;100.00
36726;BME280;44936;52.086;5.150;2023-02-23T07:36:35;101987.91;;;8.51;100.00
36726;BME280;44936;52.086;5.150;2023-02-23T07:39:02;101958.63;;;8.34;100.00
36726;BME280;44936;52.086;5.150;2023-02-23T07:41:29;101983.56;;;8.51;100.00
36726;BME280;44936;52.086;5.150;2023-02-23T07:43:54;101986.91;;;8.47;100.00
36726;BME280;44936;52.086;5.150;2023-02-23T07:46:19;102011.13;;;8.40;100.00
36726;BME280;44936;52.086;5.150;2023-02-23T07:48:45;102013.88;;;8.45;100.00
36726;BME280;44936;52.086;5.150;2023-02-23T07:51:12;101988.22;;;8.33;100.00
36726;BME280;44936;52.086;5.150;2023-02-23T07:53:39;101988.69;;;8.21;100.00
36726;BME280;44936;52.086;5.150;2023-02-23T07:56:06;101990.72;;;8.30;100.00
36726;BME280;44936;52.086;5.150;2023-02-23T07:58:45;102011.22;;;8.43;100.00
36726;BME280;44936;52.086;5.150;2023-02-23T08:01:11;102011.22;;;8.43;100.00
36726;BME280;44936;52.086;5.150;2023-02-23T08:03:37;102024.31;;;8.45;100.00
36726;BME280;44936;52.086;5.150;2023-02-23T08:06:03;102010.69;;;8.28;100.00
36726;BME280;44936;52.086;5.150;2023-02-23T08:08:29;102046.94;;;8.43;100.00
36726;BME280;44936;52.086;5.150;2023-02-23T08:11:01;102041.19;;;8.55;100.00
36726;BME280;44936;52.086;5.150;2023-02-23T08:13:27;102049.53;;;8.71;100.00
36726;BME280;44936;52.086;5.150;2023-02-23T08:15:53;102045.34;;;8.76;100.00
36726;BME280;44936;52.086;5.150;2023-02-23T08:18:19;102048.13;;;8.83;100.00
36726;BME280;44936;52.086;5.150;2023-02-23T08:20:44;102063.16;;;8.90;100.00
36726;BME280;44936;52.086;5.150;2023-02-23T08:23:10;102043.72;;;8.82;100.00
36726;BME280;44936;52.086;5.150;2023-02-23T08:25:36;102046.22;;;8.77;100.00
36726;BME280;44936;52.086;5.150;2023-02-23T08:28:02;102064.66;;;8.82;100.00
36726;BME280;44936;52.086;5.150;2023-02-23T08:30:29;102065.81;;;8.91;100.00
36726;BME280;44936;52.086;5.150;2023-02-23T08:32:55;102098.09;;;8.92;100.00
36726;BME280;44936;52.086;5.150;2023-02-23T08:35:20;102078.72;;;8.85;100.00
36726;BME280;44936;52.086;5.150;2023-02-23T08:37:45;102064.00;;;8.89;100.00
36726;BME280;44936;52.086;5.150;2023-02-23T08:40:12;102103.13;;;9.14;100.00
36726;BME280;44936;52.086;5.150;2023-02-23T08:42:42;102121.56;;;9.19;100.00
36726;BME280;44936;52.086;5.150;2023-02-23T08:45:10;102083.63;;;9.03;100.00
36726;BME280;44936;52.086;5.150;2023-02-23T08:47:35;102080.78;;;8.95;100.00
36726;BME280;44936;52.086;5.150;2023-02-23T08:50:01;102124.00;;;9.11;100.00
36726;BME280;44936;52.086;5.150;2023-02-23T08:52:26;102147.25;;;9.30;100.00
36726;BME280;44936;52.086;5.150;2023-02-23T08:54:53;102113.59;;;9.14;100.00
36726;BME280;44936;52.086;5.150;2023-02-23T08:57:38;102148.97;;;9.30;100.00
36726;BME280;44936;52.086;5.150;2023-02-23T09:00:04;102162.19;;;9.34;100.00
36726;BME280;44936;52.086;5.150;2023-02-23T09:02:39;102126.81;;;9.19;100.00
36726;BME280;44936;52.086;5.150;2023-02-23T09:05:05;102142.75;;;9.26;100.00
36726;BME280;44936;52.086;5.150;2023-02-23T09:07:30;102153.63;;;9.40;100.00
36726;BME280;44936;52.086;5.150;2023-02-23T09:09:56;102145.81;;;9.42;100.00
36726;BME280;44936;52.086;5.150;2023-02-23T09:12:22;102161.66;;;9.46;100.00
36726;BME280;44936;52.086;5.150;2023-02-23T09:14:47;102170.63;;;9.54;100.00
36726;BME280;44936;52.086;5.150;2023-02-23T09:17:13;102146.63;;;9.39;100.00
36726;BME280;44936;52.086;5.150;2023-02-23T09:19:38;102157.16;;;9.42;100.00
36726;BME280;44936;52.086;5.150;2023-02-23T09:22:04;102140.50;;;9.39;100.00
36726;BME280;44936;52.086;5.150;2023-02-23T09:24:29;102162.03;;;9.60;100.00
36726;BME280;44936;52.086;5.150;2023-02-23T09:26:54;102142.59;;;9.52;100.00
36726;BME280;44936;52.086;5.150;2023-02-23T09:29:20;102146.94;;;9.51;100.00
36726;BME280;44936;52.086;5.150;2023-02-23T09:31:47;102159.06;;;9.46;100.00
36726;BME280;44936;52.086;5.150;2023-02-23T09:34:12;102167.16;;;9.55;100.00
36726;BME280;44936;52.086;5.150;2023-02-23T09:36:37;102166.22;;;9.53;100.00
36726;BME280;44936;52.086;5.150;2023-02-23T09:39:03;102152.94;;;9.46;100.00
36726;BME280;44936;52.086;5.150;2023-02-23T09:49:36;102144.44;;;9.54;100.00
36726;BME280;44936;52.086;5.150;2023-02-23T09:52:03;102123.50;;;9.54;100.00
36726;BME280;44936;52.086;5.150;2023-02-23T09:54:34;102168.03;;;9.87;100.00
36726;BME280;44936;52.086;5.150;2023-02-23T09:57:11;102169.00;;;9.89;100.00
36726;BME280;44936;52.086;5.150;2023-02-23T09:59:38;102166.44;;;9.92;100.00
36726;BME280;44936;52.086;5.150;2023-02-23T10:04:43;102171.50;;;9.86;100.00
36726;BME280;44936;52.086;5.150;2023-02-23T10:07:29;102141.09;;;9.60;100.00
36726;BME280;44936;52.086;5.150;2023-02-23T10:10:09;102169.97;;;9.94;100.00
36726;BME280;44936;52.086;5.150;2023-02-23T10:23:44;102175.66;;;10.11;100.00
36726;BME280;44936;52.086;5.150;2023-02-23T10:26:17;102171.84;;;9.99;100.00
36726;BME280;44936;52.086;5.150;2023-02-23T10:28:45;102141.94;;;9.90;100.00
36726;BME280;44936;52.086;5.150;2023-02-23T10:31:39;102159.63;;;9.99;100.00
36726;BME280;44936;52.086;5.150;2023-02-23T10:34:15;102177.28;;;10.06;100.00
36726;BME280;44936;52.086;5.150;2023-02-23T10:36:49;102164.97;;;10.04;100.00
36726;BME280;44936;52.086;5.150;2023-02-23T10:39:16;102165.06;;;10.07;100.00
36726;BME280;44936;52.086;5.150;2023-02-23T10:41:42;102153.56;;;10.02;100.00
36726;BME280;44936;52.086;5.150;2023-02-23T10:44:24;102146.97;;;10.16;100.00
36726;BME280;44936;52.086;5.150;2023-02-23T10:46:58;102140.75;;;10.12;100.00
36726;BME280;44936;52.086;5.150;2023-02-23T10:49:31;102117.88;;;10.07;100.00
36726;BME280;44936;52.086;5.150;2023-02-23T10:51:59;102139.16;;;10.19;100.00
36726;BME280;44936;52.086;5.150;2023-02-23T10:57:02;102166.09;;;10.46;100.00
36726;BME280;44936;52.086;5.150;2023-02-23T10:59:32;102149.34;;;10.41;100.00
36726;BME280;44936;52.086;5.150;2023-02-23T11:01:57;102121.09;;;10.30;100.00
36726;BME280;44936;52.086;5.150;2023-02-23T11:04:24;102142.03;;;10.63;100.00
36726;BME280;44936;52.086;5.150;2023-02-23T11:06:51;102101.31;;;10.42;100.00
36726;BME280;44936;52.086;5.150;2023-02-23T11:09:31;102139.84;;;10.83;100.00
36726;BME280;44936;52.086;5.150;2023-02-23T11:12:03;102084.22;;;10.60;100.00
36726;BME280;44936;52.086;5.150;2023-02-23T11:14:41;102088.78;;;10.68;100.00
36726;BME280;44936;52.086;5.150;2023-02-23T11:17:31;102116.19;;;10.81;100.00
36726;BME280;44936;52.086;5.150;2023-02-23T11:22:42;102104.53;;;10.68;100.00
36726;BME280;44936;52.086;5.150;2023-02-23T11:25:20;102086.63;;;10.50;100.00
36726;BME280;44936;52.086;5.150;2023-02-23T11:27:49;102112.53;;;10.37;100.00
36726;BME280;44936;52.086;5.150;2023-02-23T11:30:19;102084.72;;;10.09;100.00
36726;BME280;44936;52.086;5.150;2023-02-23T11:32:50;102086.28;;;10.01;100.00
36726;BME280;44936;52.086;5.150;2023-02-23T11:35:28;102096.28;;;9.82;100.00
36726;BME280;44936;52.086;5.150;2023-02-23T11:37:54;102142.06;;;9.97;100.00
36726;BME280;44936;52.086;5.150;2023-02-23T11:40:25;102160.44;;;9.98;100.00
36726;BME280;44936;52.086;5.150;2023-02-23T11:45:48;102168.81;;;9.83;100.00
36726;BME280;44936;52.086;5.150;2023-02-23T11:48:39;102169.19;;;9.65;100.00
36726;BME280;44936;52.086;5.150;2023-02-23T11:51:07;102179.41;;;9.56;100.00
36726;BME280;44936;52.086;5.150;2023-02-23T11:53:38;102165.44;;;9.27;100.00
36726;BME280;44936;52.086;5.150;2023-02-23T11:56:05;102184.34;;;9.17;100.00
36726;BME280;44936;52.086;5.150;2023-02-23T11:58:48;102182.59;;;9.16;100.00
36726;BME280;44936;52.086;5.150;2023-02-23T12:01:16;102186.88;;;9.14;100.00
36726;BME280;44936;52.086;5.150;2023-02-23T12:03:55;102191.78;;;9.32;100.00
36726;BME280;44936;52.086;5.150;2023-02-23T12:06:40;102182.47;;;9.42;100.00
36726;BME280;44936;52.086;5.150;2023-02-23T12:09:25;102182.25;;;9.34;100.00
36726;BME280;44936;52.086;5.150;2023-02-23T12:12:08;102173.72;;;9.41;100.00
36726;BME280;44936;52.086;5.150;2023-02-23T12:14:48;102171.41;;;9.52;100.00
36726;BME280;44936;52.086;5.150;2023-02-23T12:17:38;102138.81;;;9.41;100.00
36726;BME280;44936;52.086;5.150;2023-02-23T12:20:17;102169.16;;;9.64;100.00
36726;BME280;44936;52.086;5.150;2023-02-23T12:22:49;102163.28;;;9.73;100.00
36726;BME280;44936;52.086;5.150;2023-02-23T12:25:34;102169.56;;;9.79;100.00
36726;BME280;44936;52.086;5.150;2023-02-23T12:28:13;102135.56;;;9.81;100.00
36726;BME280;44936;52.086;5.150;2023-02-23T12:30:49;102138.97;;;9.78;100.00
36726;BME280;44936;52.086;5.150;2023-02-23T12:33:39;102150.28;;;9.77;100.00
36726;BME280;44936;52.086;5.150;2023-02-23T12:39:27;102160.31;;;9.92;100.00
36726;BME280;44936;52.086;5.150;2023-02-23T12:42:15;102134.66;;;9.80;100.00
36726;BME280;44936;52.086;5.150;2023-02-23T12:45:21;102143.47;;;9.82;100.00
36726;BME280;44936;52.086;5.150;2023-02-23T12:48:06;102118.22;;;9.86;100.00
36726;BME280;44936;52.086;5.150;2023-02-23T12:50:38;102130.91;;;10.04;100.00
36726;BME280;44936;52.086;5.150;2023-02-23T12:55:48;102136.28;;;10.08;100.00
36726;BME280;44936;52.086;5.150;2023-02-23T13:06:06;102077.91;;;9.81;100.00
36726;BME280;44936;52.086;5.150;2023-02-23T13:11:48;102060.94;;;10.01;100.00
36726;BME280;44936;52.086;5.150;2023-02-23T13:16:55;102104.56;;;10.32;100.00
36726;BME280;44936;52.086;5.150;2023-02-23T13:19:40;102095.16;;;10.42;100.00
36726;BME280;44936;52.086;5.150;2023-02-23T13:22:39;102096.44;;;10.59;100.00
36726;BME280;44936;52.086;5.150;2023-02-23T13:25:33;102078.69;;;10.47;100.00
36726;BME280;44936;52.086;5.150;2023-02-23T13:28:03;102090.19;;;10.53;100.00
36726;BME280;44936;52.086;5.150;2023-02-23T13:30:29;102085.06;;;10.59;100.00
36726;BME280;44936;52.086;5.150;2023-02-23T13:33:16;102100.09;;;10.66;100.00
36726;BME280;44936;52.086;5.150;2023-02-23T13:35:43;102111.56;;;10.69;100.00
36726;BME280;44936;52.086;5.150;2023-02-23T13:38:21;102104.41;;;10.62;100.00
36726;BME280;44936;52.086;5.150;2023-02-23T13:41:51;102089.25;;;10.50;100.00
36726;BME280;44936;52.086;5.150;2023-02-23T13:44:00;102093.53;;;10.47;100.00
36726;BME280;44936;52.086;5.150;2023-02-23T13:46:56;102102.97;;;10.39;100.00
36726;BME280;44936;52.086;5.150;2023-02-23T13:49:42;102091.59;;;10.04;100.00
36726;BME280;44936;52.086;5.150;2023-02-23T13:52:24;102105.59;;;10.06;100.00
36726;BME280;44936;52.086;5.150;2023-02-23T13:54:56;102106.56;;;10.08;100.00
36726;BME280;44936;52.086;5.150;2023-02-23T13:57:23;102124.97;;;10.11;100.00
36726;BME280;44936;52.086;5.150;2023-02-23T13:59:49;102128.22;;;10.01;100.00
36726;BME280;44936;52.086;5.150;2023-02-23T14:04:56;102116.69;;;9.94;100.00
36726;BME280;44936;52.086;5.150;2023-02-23T14:07:26;102150.28;;;9.77;100.00
36726;BME280;44936;52.086;5.150;2023-02-23T14:09:55;102150.22;;;9.74;100.00
36726;BME280;44936;52.086;5.150;2023-02-23T14:12:33;102128.75;;;9.56;100.00
36726;BME280;44936;52.086;5.150;2023-02-23T14:18:00;102171.00;;;9.68;100.00
36726;BME280;44936;52.086;5.150;2023-02-23T14:23:25;102174.47;;;9.67;100.00
36726;BME280;44936;52.086;5.150;2023-02-23T14:26:09;102181.22;;;9.59;100.00
36726;BME280;44936;52.086;5.150;2023-02-23T14:28:43;102164.97;;;9.41;100.00
36726;BME280;44936;52.086;5.150;2023-02-23T14:38:59;102185.09;;;9.42;100.00
36726;BME280;44936;52.086;5.150;2023-02-23T14:41:33;102139.13;;;9.21;100.00
36726;BME280;44936;52.086;5.150;2023-02-23T14:44:15;102159.56;;;9.34;100.00
36726;BME280;44936;52.086;5.150;2023-02-23T14:46:59;102176.84;;;9.58;100.00